Aérodrome :
LOGIN :

S'inscrire | Disclaimer

   EN    FR    IT 

 










Légende :    VFR   VFR Marginal   IFR   IFR Intensif   IFR Très Intensif
Visi : 
Plafond : 
>= 8 km
>= 3000ft
5 à 8 km
1000 à 3000 ft
1500m à 5 km
500 à 1000 ft
800 à 1500m
200 à 500 ft
< 800m
< 200 ft
Symboles :   Orages  Brouillard  Fortes neiges  Fortes précipitations  Vent > 20 kt
SIGMETs :   Divers  Orages  Givrage  Turbulence  Onde Orograph.  Cendres Volcan.







- Altitude de l'aérodrome : 584 ft
- Voir les cartes d'approche


LFPV - Villacoublay Vélizy

DERNIER METAR :
  • 251430Z AUTO 25003KT 210V280 CAVOK 20/14 Q1018 TEMPO 4000 SHRA BKN013 BKN030TCU

METARs EXPIRÉS :
  • 251400Z AUTO 25004KT CAVOK 19/14 Q1018 TEMPO 4000 -SHRA BKN015 BKN025TCU
  • 251330Z AUTO 21003KT 170V260 CAVOK 19/13 Q1018 TEMPO 4000 -SHRA BKN015 BKN025TCU
  • 251300Z AUTO 18003KT 150V230 9999 FEW042 BKN082 19/13 Q1018 NOSIG
  • 251230Z AUTO 19004KT 160V230 CAVOK 19/13 Q1018 NOSIG
  • 251200Z AUTO VRB01KT CAVOK 19/13 Q1018 NOSIG

TAF TAF LFPV
Valide du 25 à 15h jusqu'au 26 à 15h UTC


251400Z 2515/2615 20005KT 9999 BKN040
TEMPO 2515/2518 4000 SHRA BKN013 BKN030TCU
BECMG 2522/2524 OVC010
BECMG 2600/2602 BKN005
TEMPO 2602/2612 3000 DZRA BKN003
BECMG 2612/2614 BKN020
Pas de NOTAMs connus pour ce terrain.



MET'MAP, la Météo Aéronautique d'un coup d'oeil ! - Copyright ORBIFLY Décembre 2007 - Disclaimer

ORBIFLY MET'MAP TEAM :

Programmation & Développement : Alexandra Zaïnal
Conception & Développement : Baudouin d'Aumeries
Co-Programmation & Développement : Marc-Olivier Méhu
Soutien technique & logistique : Manuel Goepfert

Contact : metmap@orbifly.com




SOURCES & CREDITS :

   NOAA